sensor_id;sensor_type;location;lat;lon;timestamp;temperature;humidity
33903;DHT22;20194;50.950;5.346;2022-07-15T00:01:11;19.10;1.00
33903;DHT22;20194;50.950;5.346;2022-07-15T00:03:38;19.00;1.00
33903;DHT22;20194;50.950;5.346;2022-07-15T00:06:04;19.10;1.00
33903;DHT22;20194;50.950;5.346;2022-07-15T00:08:29;18.80;1.00
33903;DHT22;20194;50.950;5.346;2022-07-15T00:10:55;18.70;1.00
33903;DHT22;20194;50.950;5.346;2022-07-15T00:13:21;18.80;1.00
33903;DHT22;20194;50.950;5.346;2022-07-15T00:15:47;18.60;1.00
33903;DHT22;20194;50.950;5.346;2022-07-15T00:18:12;18.30;1.00
33903;DHT22;20194;50.950;5.346;2022-07-15T00:20:38;18.10;1.00
33903;DHT22;20194;50.950;5.346;2022-07-15T00:23:06;18.10;1.00
33903;DHT22;20194;50.950;5.346;2022-07-15T00:25:33;18.10;1.00
33903;DHT22;20194;50.950;5.346;2022-07-15T00:28:08;18.20;1.00
33903;DHT22;20194;50.950;5.346;2022-07-15T00:30:36;18.10;1.00
33903;DHT22;20194;50.950;5.346;2022-07-15T00:33:03;18.30;1.00
33903;DHT22;20194;50.950;5.346;2022-07-15T00:35:30;18.20;1.00
33903;DHT22;20194;50.950;5.346;2022-07-15T00:37:57;18.50;1.00
33903;DHT22;20194;50.950;5.346;2022-07-15T00:40:23;18.50;1.00
33903;DHT22;20194;50.950;5.346;2022-07-15T00:42:49;18.60;1.00
33903;DHT22;20194;50.950;5.346;2022-07-15T00:45:20;18.60;1.00
33903;DHT22;20194;50.950;5.346;2022-07-15T00:47:52;18.60;1.00
33903;DHT22;20194;50.950;5.346;2022-07-15T00:50:19;18.70;1.00
33903;DHT22;20194;50.950;5.346;2022-07-15T00:52:49;18.60;1.00
33903;DHT22;20194;50.950;5.346;2022-07-15T00:55:18;18.70;1.00
33903;DHT22;20194;50.950;5.346;2022-07-15T00:57:45;18.60;1.00
33903;DHT22;20194;50.950;5.346;2022-07-15T01:00:13;18.50;1.00
33903;DHT22;20194;50.950;5.346;2022-07-15T01:02:40;18.50;1.00
33903;DHT22;20194;50.950;5.346;2022-07-15T01:05:08;18.40;1.00
33903;DHT22;20194;50.950;5.346;2022-07-15T01:07:36;18.40;1.00
33903;DHT22;20194;50.950;5.346;2022-07-15T01:10:04;18.30;1.00
33903;DHT22;20194;50.950;5.346;2022-07-15T01:12:30;18.30;1.00
33903;DHT22;20194;50.950;5.346;2022-07-15T01:14:56;18.40;1.00
33903;DHT22;20194;50.950;5.346;2022-07-15T01:17:22;18.20;1.00
33903;DHT22;20194;50.950;5.346;2022-07-15T01:19:47;18.00;1.00
33903;DHT22;20194;50.950;5.346;2022-07-15T01:22:13;18.10;1.00
33903;DHT22;20194;50.950;5.346;2022-07-15T01:24:39;17.90;1.00
33903;DHT22;20194;50.950;5.346;2022-07-15T01:27:05;18.00;1.00
33903;DHT22;20194;50.950;5.346;2022-07-15T01:29:32;17.80;1.00
33903;DHT22;20194;50.950;5.346;2022-07-15T01:31:58;17.90;1.00
33903;DHT22;20194;50.950;5.346;2022-07-15T01:34:24;18.00;1.00
33903;DHT22;20194;50.950;5.346;2022-07-15T01:36:49;18.00;1.00
33903;DHT22;20194;50.950;5.346;2022-07-15T01:39:15;18.10;1.00
33903;DHT22;20194;50.950;5.346;2022-07-15T01:41:41;18.30;1.00
33903;DHT22;20194;50.950;5.346;2022-07-15T01:44:06;18.20;1.00
33903;DHT22;20194;50.950;5.346;2022-07-15T01:46:32;18.30;1.00
33903;DHT22;20194;50.950;5.346;2022-07-15T01:48:57;18.30;1.00
33903;DHT22;20194;50.950;5.346;2022-07-15T01:51:41;18.40;1.00
33903;DHT22;20194;50.950;5.346;2022-07-15T01:54:07;18.30;1.00
33903;DHT22;20194;50.950;5.346;2022-07-15T01:56:33;18.40;1.00
33903;DHT22;20194;50.950;5.346;2022-07-15T01:58:59;18.40;1.00
33903;DHT22;20194;50.950;5.346;2022-07-15T02:01:25;18.30;1.00
33903;DHT22;20194;50.950;5.346;2022-07-15T02:03:51;18.30;1.00
33903;DHT22;20194;50.950;5.346;2022-07-15T02:06:17;18.20;1.00
33903;DHT22;20194;50.950;5.346;2022-07-15T02:08:42;18.20;1.00
33903;DHT22;20194;50.950;5.346;2022-07-15T02:11:08;17.90;1.00
33903;DHT22;20194;50.950;5.346;2022-07-15T02:13:34;17.90;1.00
33903;DHT22;20194;50.950;5.346;2022-07-15T02:15:59;17.90;1.00
33903;DHT22;20194;50.950;5.346;2022-07-15T02:18:25;18.00;1.00
33903;DHT22;20194;50.950;5.346;2022-07-15T02:20:51;18.00;1.00
33903;DHT22;20194;50.950;5.346;2022-07-15T02:23:16;18.10;1.00
33903;DHT22;20194;50.950;5.346;2022-07-15T02:25:42;18.10;1.00
33903;DHT22;20194;50.950;5.346;2022-07-15T02:28:08;18.10;1.00
33903;DHT22;20194;50.950;5.346;2022-07-15T02:30:41;18.10;1.00
33903;DHT22;20194;50.950;5.346;2022-07-15T02:33:07;18.00;1.00
33903;DHT22;20194;50.950;5.346;2022-07-15T02:35:33;17.90;1.00
33903;DHT22;20194;50.950;5.346;2022-07-15T02:37:59;18.00;1.00
33903;DHT22;20194;50.950;5.346;2022-07-15T02:40:26;18.10;1.00
33903;DHT22;20194;50.950;5.346;2022-07-15T02:42:54;18.10;1.00
33903;DHT22;20194;50.950;5.346;2022-07-15T02:45:22;18.00;1.00
33903;DHT22;20194;50.950;5.346;2022-07-15T02:47:49;18.00;1.00
33903;DHT22;20194;50.950;5.346;2022-07-15T02:50:16;17.90;1.00
33903;DHT22;20194;50.950;5.346;2022-07-15T02:52:42;17.90;1.00
33903;DHT22;20194;50.950;5.346;2022-07-15T02:55:10;17.90;1.00
33903;DHT22;20194;50.950;5.346;2022-07-15T02:57:36;17.90;1.00
33903;DHT22;20194;50.950;5.346;2022-07-15T03:00:08;17.90;1.00
33903;DHT22;20194;50.950;5.346;2022-07-15T03:02:34;17.80;1.00
33903;DHT22;20194;50.950;5.346;2022-07-15T03:05:00;17.80;1.00
33903;DHT22;20194;50.950;5.346;2022-07-15T03:07:26;17.70;1.00
33903;DHT22;20194;50.950;5.346;2022-07-15T03:09:54;17.70;1.00
33903;DHT22;20194;50.950;5.346;2022-07-15T03:12:20;17.70;1.00
33903;DHT22;20194;50.950;5.346;2022-07-15T03:14:46;17.60;1.00
33903;DHT22;20194;50.950;5.346;2022-07-15T03:17:11;17.40;1.00
33903;DHT22;20194;50.950;5.346;2022-07-15T03:19:37;17.40;1.00
33903;DHT22;20194;50.950;5.346;2022-07-15T03:22:03;17.30;1.00
33903;DHT22;20194;50.950;5.346;2022-07-15T03:24:30;17.40;1.00
33903;DHT22;20194;50.950;5.346;2022-07-15T03:26:56;17.30;1.00
33903;DHT22;20194;50.950;5.346;2022-07-15T03:29:21;17.40;1.00
33903;DHT22;20194;50.950;5.346;2022-07-15T03:31:47;17.40;1.00
33903;DHT22;20194;50.950;5.346;2022-07-15T03:34:13;17.40;1.00
33903;DHT22;20194;50.950;5.346;2022-07-15T03:36:39;17.50;1.00
33903;DHT22;20194;50.950;5.346;2022-07-15T03:39:06;17.40;1.00
33903;DHT22;20194;50.950;5.346;2022-07-15T03:41:33;17.50;1.00
33903;DHT22;20194;50.950;5.346;2022-07-15T03:44:01;17.40;1.00
33903;DHT22;20194;50.950;5.346;2022-07-15T03:46:27;17.40;1.00
33903;DHT22;20194;50.950;5.346;2022-07-15T03:48:53;17.30;1.00
33903;DHT22;20194;50.950;5.346;2022-07-15T03:51:19;17.20;1.00
33903;DHT22;20194;50.950;5.346;2022-07-15T03:53:45;17.20;1.00
33903;DHT22;20194;50.950;5.346;2022-07-15T03:56:11;17.20;1.00
33903;DHT22;20194;50.950;5.346;2022-07-15T03:58:37;17.30;1.00
33903;DHT22;20194;50.950;5.346;2022-07-15T04:01:03;17.30;1.00
33903;DHT22;20194;50.950;5.346;2022-07-15T04:03:30;17.30;1.00
33903;DHT22;20194;50.950;5.346;2022-07-15T04:05:56;17.30;1.00
33903;DHT22;20194;50.950;5.346;2022-07-15T04:08:21;17.40;1.00
33903;DHT22;20194;50.950;5.346;2022-07-15T04:10:47;17.40;1.00
33903;DHT22;20194;50.950;5.346;2022-07-15T04:13:13;17.40;1.00
33903;DHT22;20194;50.950;5.346;2022-07-15T04:15:45;17.40;1.00
33903;DHT22;20194;50.950;5.346;2022-07-15T04:18:11;17.50;1.00
33903;DHT22;20194;50.950;5.346;2022-07-15T04:20:36;17.40;1.00
33903;DHT22;20194;50.950;5.346;2022-07-15T04:23:02;17.40;1.00
33903;DHT22;20194;50.950;5.346;2022-07-15T04:25:27;17.40;1.00
33903;DHT22;20194;50.950;5.346;2022-07-15T04:27:53;17.40;1.00
33903;DHT22;20194;50.950;5.346;2022-07-15T04:30:19;17.40;1.00
33903;DHT22;20194;50.950;5.346;2022-07-15T04:32:45;17.30;1.00
33903;DHT22;20194;50.950;5.346;2022-07-15T04:35:10;17.30;1.00
33903;DHT22;20194;50.950;5.346;2022-07-15T04:37:36;17.40;1.00
33903;DHT22;20194;50.950;5.346;2022-07-15T04:40:02;17.30;1.00
33903;DHT22;20194;50.950;5.346;2022-07-15T04:42:27;17.30;1.00
33903;DHT22;20194;50.950;5.346;2022-07-15T04:44:54;17.40;1.00
33903;DHT22;20194;50.950;5.346;2022-07-15T04:47:20;17.30;1.00
33903;DHT22;20194;50.950;5.346;2022-07-15T04:49:45;17.40;1.00
33903;DHT22;20194;50.950;5.346;2022-07-15T04:52:30;17.40;1.00
33903;DHT22;20194;50.950;5.346;2022-07-15T04:54:56;17.40;1.00
33903;DHT22;20194;50.950;5.346;2022-07-15T04:57:22;17.40;1.00
33903;DHT22;20194;50.950;5.346;2022-07-15T04:59:48;17.50;1.00
33903;DHT22;20194;50.950;5.346;2022-07-15T05:02:14;17.50;1.00
33903;DHT22;20194;50.950;5.346;2022-07-15T05:04:40;17.40;1.00
33903;DHT22;20194;50.950;5.346;2022-07-15T05:07:06;17.10;1.00
33903;DHT22;20194;50.950;5.346;2022-07-15T05:09:32;17.10;1.00
33903;DHT22;20194;50.950;5.346;2022-07-15T05:11:58;17.10;1.00
33903;DHT22;20194;50.950;5.346;2022-07-15T05:14:24;17.30;1.00
33903;DHT22;20194;50.950;5.346;2022-07-15T05:16:50;17.30;1.00
33903;DHT22;20194;50.950;5.346;2022-07-15T05:19:16;17.40;1.00
33903;DHT22;20194;50.950;5.346;2022-07-15T05:21:42;17.50;1.00
33903;DHT22;20194;50.950;5.346;2022-07-15T05:24:08;17.30;1.00
33903;DHT22;20194;50.950;5.346;2022-07-15T05:26:34;17.20;1.00
33903;DHT22;20194;50.950;5.346;2022-07-15T05:28:59;17.40;1.00
33903;DHT22;20194;50.950;5.346;2022-07-15T05:31:26;17.50;1.00
33903;DHT22;20194;50.950;5.346;2022-07-15T05:33:52;17.60;1.00
33903;DHT22;20194;50.950;5.346;2022-07-15T05:36:18;17.60;1.00
33903;DHT22;20194;50.950;5.346;2022-07-15T05:38:45;17.60;1.00
33903;DHT22;20194;50.950;5.346;2022-07-15T05:41:11;17.20;1.00
33903;DHT22;20194;50.950;5.346;2022-07-15T05:43:37;17.20;1.00
33903;DHT22;20194;50.950;5.346;2022-07-15T05:46:03;17.20;1.00
33903;DHT22;20194;50.950;5.346;2022-07-15T05:48:29;17.30;1.00
33903;DHT22;20194;50.950;5.346;2022-07-15T05:50:55;17.50;1.00
33903;DHT22;20194;50.950;5.346;2022-07-15T05:53:21;17.30;1.00
33903;DHT22;20194;50.950;5.346;2022-07-15T05:55:46;17.30;1.00
33903;DHT22;20194;50.950;5.346;2022-07-15T05:58:12;17.50;1.00
33903;DHT22;20194;50.950;5.346;2022-07-15T06:00:38;17.70;1.00
33903;DHT22;20194;50.950;5.346;2022-07-15T06:03:05;17.80;1.00
33903;DHT22;20194;50.950;5.346;2022-07-15T06:05:31;17.70;1.00
33903;DHT22;20194;50.950;5.346;2022-07-15T06:07:57;17.50;1.00
33903;DHT22;20194;50.950;5.346;2022-07-15T06:10:23;17.70;1.00
33903;DHT22;20194;50.950;5.346;2022-07-15T06:12:49;18.20;1.00
33903;DHT22;20194;50.950;5.346;2022-07-15T06:15:15;18.50;1.00
33903;DHT22;20194;50.950;5.346;2022-07-15T06:17:40;18.70;1.00
33903;DHT22;20194;50.950;5.346;2022-07-15T06:20:07;18.90;1.00
33903;DHT22;20194;50.950;5.346;2022-07-15T06:22:33;18.70;1.00
33903;DHT22;20194;50.950;5.346;2022-07-15T06:24:59;19.10;1.00
33903;DHT22;20194;50.950;5.346;2022-07-15T06:27:24;19.30;1.00
33903;DHT22;20194;50.950;5.346;2022-07-15T06:29:51;19.60;1.00
33903;DHT22;20194;50.950;5.346;2022-07-15T06:32:18;19.80;1.00
33903;DHT22;20194;50.950;5.346;2022-07-15T06:34:44;20.00;1.00
33903;DHT22;20194;50.950;5.346;2022-07-15T06:37:09;20.20;1.00
33903;DHT22;20194;50.950;5.346;2022-07-15T06:39:35;20.10;1.00
33903;DHT22;20194;50.950;5.346;2022-07-15T06:42:01;20.20;1.00
33903;DHT22;20194;50.950;5.346;2022-07-15T06:44:28;20.40;1.00
33903;DHT22;20194;50.950;5.346;2022-07-15T06:46:54;20.70;1.00
33903;DHT22;20194;50.950;5.346;2022-07-15T06:49:21;21.00;99.90
33903;DHT22;20194;50.950;5.346;2022-07-15T06:51:47;21.20;99.90
33903;DHT22;20194;50.950;5.346;2022-07-15T06:54:13;21.00;99.90
33903;DHT22;20194;50.950;5.346;2022-07-15T06:56:39;21.00;99.90
33903;DHT22;20194;50.950;5.346;2022-07-15T06:59:04;20.70;99.90
33903;DHT22;20194;50.950;5.346;2022-07-15T07:01:30;20.90;99.90
33903;DHT22;20194;50.950;5.346;2022-07-15T07:03:56;20.70;99.90
33903;DHT22;20194;50.950;5.346;2022-07-15T07:06:22;20.50;99.90
33903;DHT22;20194;50.950;5.346;2022-07-15T07:08:48;21.00;99.90
33903;DHT22;20194;50.950;5.346;2022-07-15T07:11:15;20.60;99.90
33903;DHT22;20194;50.950;5.346;2022-07-15T07:13:40;21.30;99.90
33903;DHT22;20194;50.950;5.346;2022-07-15T07:16:07;21.50;99.90
33903;DHT22;20194;50.950;5.346;2022-07-15T07:18:33;21.90;99.90
33903;DHT22;20194;50.950;5.346;2022-07-15T07:20:58;22.20;1.00
33903;DHT22;20194;50.950;5.346;2022-07-15T07:23:24;22.10;1.00
33903;DHT22;20194;50.950;5.346;2022-07-15T07:25:54;20.50;99.90
33903;DHT22;20194;50.950;5.346;2022-07-15T07:28:20;20.60;99.90
33903;DHT22;20194;50.950;5.346;2022-07-15T07:30:46;20.80;99.90
33903;DHT22;20194;50.950;5.346;2022-07-15T07:33:15;20.80;99.90
33903;DHT22;20194;50.950;5.346;2022-07-15T07:35:40;21.00;99.90
33903;DHT22;20194;50.950;5.346;2022-07-15T07:38:08;20.60;99.90
33903;DHT22;20194;50.950;5.346;2022-07-15T07:40:33;20.90;99.90
33903;DHT22;20194;50.950;5.346;2022-07-15T07:42:59;21.20;96.40
33903;DHT22;20194;50.950;5.346;2022-07-15T07:45:25;21.40;1.00
33903;DHT22;20194;50.950;5.346;2022-07-15T07:47:54;21.40;1.00
33903;DHT22;20194;50.950;5.346;2022-07-15T07:50:20;21.60;1.00
33903;DHT22;20194;50.950;5.346;2022-07-15T07:52:45;21.60;1.00
33903;DHT22;20194;50.950;5.346;2022-07-15T07:55:11;21.90;99.90
33903;DHT22;20194;50.950;5.346;2022-07-15T07:57:50;21.90;1.00
33903;DHT22;20194;50.950;5.346;2022-07-15T08:00:17;22.30;99.90
33903;DHT22;20194;50.950;5.346;2022-07-15T08:02:43;22.60;1.00
33903;DHT22;20194;50.950;5.346;2022-07-15T08:05:09;22.40;99.90
33903;DHT22;20194;50.950;5.346;2022-07-15T08:07:35;22.40;1.00
33903;DHT22;20194;50.950;5.346;2022-07-15T08:10:04;22.50;1.00
33903;DHT22;20194;50.950;5.346;2022-07-15T08:12:31;22.60;99.90
33903;DHT22;20194;50.950;5.346;2022-07-15T08:14:56;22.80;99.90
33903;DHT22;20194;50.950;5.346;2022-07-15T08:17:23;22.90;99.90
33903;DHT22;20194;50.950;5.346;2022-07-15T08:19:49;23.10;92.40
33903;DHT22;20194;50.950;5.346;2022-07-15T08:22:14;22.90;1.00
33903;DHT22;20194;50.950;5.346;2022-07-15T08:24:41;22.50;1.00
33903;DHT22;20194;50.950;5.346;2022-07-15T08:27:07;22.60;99.90
33903;DHT22;20194;50.950;5.346;2022-07-15T08:29:34;22.90;99.90
33903;DHT22;20194;50.950;5.346;2022-07-15T08:32:00;23.10;99.90
33903;DHT22;20194;50.950;5.346;2022-07-15T08:34:25;22.60;99.90
33903;DHT22;20194;50.950;5.346;2022-07-15T08:36:51;22.70;1.00
33903;DHT22;20194;50.950;5.346;2022-07-15T08:39:17;22.30;99.90
33903;DHT22;20194;50.950;5.346;2022-07-15T08:41:42;22.70;1.00
33903;DHT22;20194;50.950;5.346;2022-07-15T08:44:08;23.20;99.90
33903;DHT22;20194;50.950;5.346;2022-07-15T08:46:35;21.70;99.90
33903;DHT22;20194;50.950;5.346;2022-07-15T08:49:13;21.90;1.00
33903;DHT22;20194;50.950;5.346;2022-07-15T08:51:43;22.50;1.00
33903;DHT22;20194;50.950;5.346;2022-07-15T08:54:11;22.10;99.90
33903;DHT22;20194;50.950;5.346;2022-07-15T08:56:36;22.00;6.00
33903;DHT22;20194;50.950;5.346;2022-07-15T08:59:04;22.10;25.00
33903;DHT22;20194;50.950;5.346;2022-07-15T09:01:31;22.50;1.00
33903;DHT22;20194;50.950;5.346;2022-07-15T09:03:57;22.50;1.00
33903;DHT22;20194;50.950;5.346;2022-07-15T09:06:50;23.20;1.00
33903;DHT22;20194;50.950;5.346;2022-07-15T09:09:34;23.80;1.00
33903;DHT22;20194;50.950;5.346;2022-07-15T09:12:04;22.80;40.40
33903;DHT22;20194;50.950;5.346;2022-07-15T09:14:33;23.40;48.40
33903;DHT22;20194;50.950;5.346;2022-07-15T09:22:32;24.20;99.90
33903;DHT22;20194;50.950;5.346;2022-07-15T09:25:10;23.90;99.90
33903;DHT22;20194;50.950;5.346;2022-07-15T09:27:42;24.10;99.90
33903;DHT22;20194;50.950;5.346;2022-07-15T09:30:15;24.00;1.00
33903;DHT22;20194;50.950;5.346;2022-07-15T09:33:01;24.10;99.90
33903;DHT22;20194;50.950;5.346;2022-07-15T09:35:46;24.20;1.00
33903;DHT22;20194;50.950;5.346;2022-07-15T09:40:59;23.80;99.90
33903;DHT22;20194;50.950;5.346;2022-07-15T09:43:24;24.20;99.90
33903;DHT22;20194;50.950;5.346;2022-07-15T09:45:58;24.40;99.60
33903;DHT22;20194;50.950;5.346;2022-07-15T09:48:26;24.50;99.10
33903;DHT22;20194;50.950;5.346;2022-07-15T09:51:00;24.60;27.00
33903;DHT22;20194;50.950;5.346;2022-07-15T09:53:26;24.00;1.00
33903;DHT22;20194;50.950;5.346;2022-07-15T09:55:52;23.50;73.90
33903;DHT22;20194;50.950;5.346;2022-07-15T09:58:19;23.70;99.90
33903;DHT22;20194;50.950;5.346;2022-07-15T10:00:45;23.50;99.90
33903;DHT22;20194;50.950;5.346;2022-07-15T10:03:12;23.20;99.90
33903;DHT22;20194;50.950;5.346;2022-07-15T10:05:39;23.70;1.00
33903;DHT22;20194;50.950;5.346;2022-07-15T10:08:06;24.30;99.90
33903;DHT22;20194;50.950;5.346;2022-07-15T10:10:33;24.90;99.90
33903;DHT22;20194;50.950;5.346;2022-07-15T10:13:16;25.00;1.00
33903;DHT22;20194;50.950;5.346;2022-07-15T10:29:01;25.50;1.00
33903;DHT22;20194;50.950;5.346;2022-07-15T10:31:32;25.80;1.00
33903;DHT22;20194;50.950;5.346;2022-07-15T10:39:16;25.90;99.90
33903;DHT22;20194;50.950;5.346;2022-07-15T10:42:00;25.70;99.90
33903;DHT22;20194;50.950;5.346;2022-07-15T10:44:36;25.70;99.90
33903;DHT22;20194;50.950;5.346;2022-07-15T10:49:46;25.40;99.90
33903;DHT22;20194;50.950;5.346;2022-07-15T10:52:22;23.80;99.90
33903;DHT22;20194;50.950;5.346;2022-07-15T10:57:20;23.60;1.00
33903;DHT22;20194;50.950;5.346;2022-07-15T10:59:56;24.30;1.00
33903;DHT22;20194;50.950;5.346;2022-07-15T11:02:24;24.90;1.00
33903;DHT22;20194;50.950;5.346;2022-07-15T11:04:51;24.00;1.00
33903;DHT22;20194;50.950;5.346;2022-07-15T11:15:00;24.30;1.00
33903;DHT22;20194;50.950;5.346;2022-07-15T11:20:03;24.50;99.90
33903;DHT22;20194;50.950;5.346;2022-07-15T11:22:35;24.80;1.00
33903;DHT22;20194;50.950;5.346;2022-07-15T11:25:03;24.30;99.90
33903;DHT22;20194;50.950;5.346;2022-07-15T11:27:29;24.20;1.00
33903;DHT22;20194;50.950;5.346;2022-07-15T11:30:01;24.10;99.90
33903;DHT22;20194;50.950;5.346;2022-07-15T11:32:32;23.50;1.00
33903;DHT22;20194;50.950;5.346;2022-07-15T11:35:00;23.20;1.00
33903;DHT22;20194;50.950;5.346;2022-07-15T11:37:36;24.10;1.00
33903;DHT22;20194;50.950;5.346;2022-07-15T11:40:13;24.80;1.00
33903;DHT22;20194;50.950;5.346;2022-07-15T11:42:59;25.30;99.90
33903;DHT22;20194;50.950;5.346;2022-07-15T11:45:43;25.90;99.90
33903;DHT22;20194;50.950;5.346;2022-07-15T11:48:12;25.30;99.90
33903;DHT22;20194;50.950;5.346;2022-07-15T11:50:49;25.20;99.90
33903;DHT22;20194;50.950;5.346;2022-07-15T11:53:15;25.50;99.90
33903;DHT22;20194;50.950;5.346;2022-07-15T11:58:15;25.60;99.90
33903;DHT22;20194;50.950;5.346;2022-07-15T12:00:47;25.40;99.90
33903;DHT22;20194;50.950;5.346;2022-07-15T12:03:13;25.20;99.90
33903;DHT22;20194;50.950;5.346;2022-07-15T12:05:39;25.10;99.90
33903;DHT22;20194;50.950;5.346;2022-07-15T12:08:05;25.40;99.90
33903;DHT22;20194;50.950;5.346;2022-07-15T12:10:35;25.50;99.90
33903;DHT22;20194;50.950;5.346;2022-07-15T12:13:01;25.90;99.90
33903;DHT22;20194;50.950;5.346;2022-07-15T12:15:32;26.00;99.90
33903;DHT22;20194;50.950;5.346;2022-07-15T12:17:58;26.10;99.90
33903;DHT22;20194;50.950;5.346;2022-07-15T12:20:24;25.90;99.90
33903;DHT22;20194;50.950;5.346;2022-07-15T12:23:09;25.70;99.90
33903;DHT22;20194;50.950;5.346;2022-07-15T12:25:35;26.00;99.90
33903;DHT22;20194;50.950;5.346;2022-07-15T12:28:00;26.40;99.90
33903;DHT22;20194;50.950;5.346;2022-07-15T12:30:35;26.60;95.40
33903;DHT22;20194;50.950;5.346;2022-07-15T12:35:40;27.10;99.90
33903;DHT22;20194;50.950;5.346;2022-07-15T12:38:06;27.00;92.60
33903;DHT22;20194;50.950;5.346;2022-07-15T12:40:32;26.80;28.60
33903;DHT22;20194;50.950;5.346;2022-07-15T12:42:58;26.00;66.90
33903;DHT22;20194;50.950;5.346;2022-07-15T12:45:36;26.40;79.90
33903;DHT22;20194;50.950;5.346;2022-07-15T12:50:57;25.60;10.10
33903;DHT22;20194;50.950;5.346;2022-07-15T12:53:23;23.90;99.90
33903;DHT22;20194;50.950;5.346;2022-07-15T12:55:51;23.90;99.90
33903;DHT22;20194;50.950;5.346;2022-07-15T12:58:23;24.40;99.90
33903;DHT22;20194;50.950;5.346;2022-07-15T13:00:49;25.00;99.90
33903;DHT22;20194;50.950;5.346;2022-07-15T13:03:20;25.50;99.90
33903;DHT22;20194;50.950;5.346;2022-07-15T13:08:22;25.80;34.40
33903;DHT22;20194;50.950;5.346;2022-07-15T13:10:51;25.70;35.60
33903;DHT22;20194;50.950;5.346;2022-07-15T13:13:19;25.50;64.70
33903;DHT22;20194;50.950;5.346;2022-07-15T13:15:46;25.10;99.90
33903;DHT22;20194;50.950;5.346;2022-07-15T13:18:12;25.40;99.90
33903;DHT22;20194;50.950;5.346;2022-07-15T13:20:39;25.70;99.90
33903;DHT22;20194;50.950;5.346;2022-07-15T13:23:06;25.80;94.00
33903;DHT22;20194;50.950;5.346;2022-07-15T13:25:33;25.40;93.10
33903;DHT22;20194;50.950;5.346;2022-07-15T13:28:01;25.50;99.90
33903;DHT22;20194;50.950;5.346;2022-07-15T13:30:27;25.80;99.90
33903;DHT22;20194;50.950;5.346;2022-07-15T13:32:53;26.20;99.90
33903;DHT22;20194;50.950;5.346;2022-07-15T13:35:18;26.00;16.00
33903;DHT22;20194;50.950;5.346;2022-07-15T13:37:44;25.80;13.70
33903;DHT22;20194;50.950;5.346;2022-07-15T13:40:11;25.40;45.30
33903;DHT22;20194;50.950;5.346;2022-07-15T13:42:38;24.80;58.50
33903;DHT22;20194;50.950;5.346;2022-07-15T13:45:05;24.40;99.90
33903;DHT22;20194;50.950;5.346;2022-07-15T13:47:30;23.90;99.90
33903;DHT22;20194;50.950;5.346;2022-07-15T13:49:57;24.20;99.90
33903;DHT22;20194;50.950;5.346;2022-07-15T13:52:48;24.70;99.90
33903;DHT22;20194;50.950;5.346;2022-07-15T13:55:15;25.20;99.90
33903;DHT22;20194;50.950;5.346;2022-07-15T13:57:41;25.60;99.90
33903;DHT22;20194;50.950;5.346;2022-07-15T14:00:10;25.80;99.90
33903;DHT22;20194;50.950;5.346;2022-07-15T14:02:38;25.70;73.70
33903;DHT22;20194;50.950;5.346;2022-07-15T14:05:05;25.90;91.00
33903;DHT22;20194;50.950;5.346;2022-07-15T14:07:31;26.00;42.60
33903;DHT22;20194;50.950;5.346;2022-07-15T14:09:57;26.20;58.30
33903;DHT22;20194;50.950;5.346;2022-07-15T14:12:23;25.60;17.20
33903;DHT22;20194;50.950;5.346;2022-07-15T14:14:49;25.70;57.10
33903;DHT22;20194;50.950;5.346;2022-07-15T14:17:14;25.60;33.90
33903;DHT22;20194;50.950;5.346;2022-07-15T14:19:40;25.50;49.80
33903;DHT22;20194;50.950;5.346;2022-07-15T14:22:06;25.40;25.00
33903;DHT22;20194;50.950;5.346;2022-07-15T14:24:31;25.10;8.20
33903;DHT22;20194;50.950;5.346;2022-07-15T14:26:57;25.10;36.30
33903;DHT22;20194;50.950;5.346;2022-07-15T14:29:23;25.00;90.10
33903;DHT22;20194;50.950;5.346;2022-07-15T14:31:49;25.10;99.90
33903;DHT22;20194;50.950;5.346;2022-07-15T14:34:14;25.20;99.90
33903;DHT22;20194;50.950;5.346;2022-07-15T14:36:40;25.10;99.90
33903;DHT22;20194;50.950;5.346;2022-07-15T14:39:07;25.10;56.00
33903;DHT22;20194;50.950;5.346;2022-07-15T14:41:33;25.10;69.50
33903;DHT22;20194;50.950;5.346;2022-07-15T14:44:00;25.10;31.20
33903;DHT22;20194;50.950;5.346;2022-07-15T14:46:26;25.20;91.00
33903;DHT22;20194;50.950;5.346;2022-07-15T14:48:51;25.60;91.40
33903;DHT22;20194;50.950;5.346;2022-07-15T14:51:17;25.80;99.90
33903;DHT22;20194;50.950;5.346;2022-07-15T14:53:43;25.60;15.30
33903;DHT22;20194;50.950;5.346;2022-07-15T14:56:09;25.60;23.90
33903;DHT22;20194;50.950;5.346;2022-07-15T14:58:34;24.70;13.50
33903;DHT22;20194;50.950;5.346;2022-07-15T15:01:00;24.30;91.40
33903;DHT22;20194;50.950;5.346;2022-07-15T15:03:26;24.70;99.90
33903;DHT22;20194;50.950;5.346;2022-07-15T15:05:52;25.00;83.00
33903;DHT22;20194;50.950;5.346;2022-07-15T15:08:17;24.90;99.90
33903;DHT22;20194;50.950;5.346;2022-07-15T15:10:43;25.10;99.90
33903;DHT22;20194;50.950;5.346;2022-07-15T15:13:09;25.10;99.90
33903;DHT22;20194;50.950;5.346;2022-07-15T15:15:35;25.00;99.90
33903;DHT22;20194;50.950;5.346;2022-07-15T15:18:01;24.80;97.30
33903;DHT22;20194;50.950;5.346;2022-07-15T15:20:27;24.80;99.90
33903;DHT22;20194;50.950;5.346;2022-07-15T15:22:53;24.80;99.90
33903;DHT22;20194;50.950;5.346;2022-07-15T15:25:19;24.90;73.70
33903;DHT22;20194;50.950;5.346;2022-07-15T15:28:05;25.00;71.20
33903;DHT22;20194;50.950;5.346;2022-07-15T15:30:32;25.20;53.90
33903;DHT22;20194;50.950;5.346;2022-07-15T15:32:58;24.90;59.00
33903;DHT22;20194;50.950;5.346;2022-07-15T15:35:24;25.00;98.30
33903;DHT22;20194;50.950;5.346;2022-07-15T15:37:50;24.90;96.00
33903;DHT22;20194;50.950;5.346;2022-07-15T15:40:16;24.90;99.90
33903;DHT22;20194;50.950;5.346;2022-07-15T15:42:42;24.90;99.90
33903;DHT22;20194;50.950;5.346;2022-07-15T15:45:08;24.90;99.90
33903;DHT22;20194;50.950;5.346;2022-07-15T15:47:34;24.40;99.90
33903;DHT22;20194;50.950;5.346;2022-07-15T15:49:59;24.60;99.90
33903;DHT22;20194;50.950;5.346;2022-07-15T15:52:25;24.70;99.90
33903;DHT22;20194;50.950;5.346;2022-07-15T15:54:51;24.60;99.90
33903;DHT22;20194;50.950;5.346;2022-07-15T15:57:17;24.50;99.90
33903;DHT22;20194;50.950;5.346;2022-07-15T15:59:43;24.70;99.90
33903;DHT22;20194;50.950;5.346;2022-07-15T16:02:08;24.70;99.90
33903;DHT22;20194;50.950;5.346;2022-07-15T16:04:35;24.50;99.90
33903;DHT22;20194;50.950;5.346;2022-07-15T16:07:01;24.50;99.90
33903;DHT22;20194;50.950;5.346;2022-07-15T16:09:26;24.30;99.90
33903;DHT22;20194;50.950;5.346;2022-07-15T16:11:54;24.40;99.90
33903;DHT22;20194;50.950;5.346;2022-07-15T16:14:20;24.50;99.90
33903;DHT22;20194;50.950;5.346;2022-07-15T16:16:46;24.60;99.90
33903;DHT22;20194;50.950;5.346;2022-07-15T16:19:11;24.60;99.90
33903;DHT22;20194;50.950;5.346;2022-07-15T16:21:37;24.40;99.90
33903;DHT22;20194;50.950;5.346;2022-07-15T16:24:21;24.50;99.90
33903;DHT22;20194;50.950;5.346;2022-07-15T16:26:47;24.50;99.90
33903;DHT22;20194;50.950;5.346;2022-07-15T16:29:13;24.40;99.90
33903;DHT22;20194;50.950;5.346;2022-07-15T16:31:38;24.30;99.90
33903;DHT22;20194;50.950;5.346;2022-07-15T16:34:04;24.30;99.90